Time;durP1;ratioP1;P1;durP2;ratioP2;P2;SDS_P1;SDS_P2;PMS_P1;PMS_P2;Temp;Humidity;BMP_temperature;BMP_pressure;BME280_temperature;BME280_humidity;BME280_pressure;Samples;Min_cycle;Max_cycle;Signal;HPM_P1;HPM_P2
2023/04/30 00:00:37;;;;;;;5.20;2.33;;;;;;;5.15;100.00;101578.16;4956075;29;20050;-80
2023/04/30 00:03:04;;;;;;;8.68;2.28;;;;;;;5.13;100.00;101582.41;4955540;29;20446;-80
2023/04/30 00:05:30;;;;;;;9.20;2.53;;;;;;;5.13;100.00;101587.59;4955771;29;20118;-81
2023/04/30 00:07:57;;;;;;;5.93;2.05;;;;;;;5.11;100.00;101584.97;4955040;28;20071;-80
2023/04/30 00:10:23;;;;;;;4.35;2.45;;;;;;;5.08;100.00;101586.56;4955501;29;20430;-80
2023/04/30 00:12:50;;;;;;;10.80;2.33;;;;;;;5.05;100.00;101583.91;4955794;28;20073;-80
2023/04/30 00:15:16;;;;;;;5.05;2.03;;;;;;;5.05;100.00;101591.69;4939737;29;20043;-80
2023/04/30 00:17:42;;;;;;;6.07;2.25;;;;;;;5.02;100.00;101586.41;4955454;29;20039;-79
2023/04/30 00:20:11;;;;;;;6.93;2.65;;;;;;;4.98;100.00;101588.03;4955017;29;20047;-81
2023/04/30 00:22:37;;;;;;;9.70;2.42;;;;;;;4.96;100.00;101589.69;4955379;29;20051;-80
2023/04/30 00:25:04;;;;;;;5.35;3.28;;;;;;;4.94;100.00;101591.34;4939856;29;20054;-81
2023/04/30 00:27:32;;;;;;;5.88;2.08;;;;;;;4.93;100.00;101589.63;4955590;29;20046;-81
2023/04/30 00:29:58;;;;;;;3.50;2.47;;;;;;;4.91;100.00;101588.69;4955436;29;20102;-80
2023/04/30 00:32:25;;;;;;;6.80;3.00;;;;;;;4.91;100.00;101599.06;4955396;29;20039;-81
2023/04/30 00:34:52;;;;;;;3.92;2.63;;;;;;;4.89;100.00;101599.03;4954979;29;20055;-80
2023/04/30 00:37:18;;;;;;;6.60;2.40;;;;;;;4.86;100.00;101598.03;4954924;29;20053;-82
2023/04/30 00:39:45;;;;;;;9.70;2.58;;;;;;;4.79;100.00;101600.44;4955964;29;20438;-80
2023/04/30 00:42:11;;;;;;;4.35;2.03;;;;;;;4.75;100.00;101601.19;4955348;29;20327;-80
2023/04/30 00:44:41;;;;;;;8.05;2.70;;;;;;;4.74;100.00;101611.53;4954861;29;20046;-80
2023/04/30 00:47:07;;;;;;;4.50;1.98;;;;;;;4.71;100.00;101611.44;4955519;29;20046;-81
2023/04/30 00:49:33;;;;;;;8.18;2.42;;;;;;;4.68;100.00;101616.53;4955590;29;20440;-81
2023/04/30 00:52:00;;;;;;;2.53;1.92;;;;;;;4.63;100.00;101622.47;4954704;29;20043;-81
2023/04/30 00:54:27;;;;;;;5.10;2.95;;;;;;;4.58;100.00;101611.06;4954962;29;20053;-81
2023/04/30 00:56:53;;;;;;;8.05;3.60;;;;;;;4.56;100.00;101614.44;4954664;29;20114;-81
2023/04/30 00:59:20;;;;;;;6.20;3.08;;;;;;;4.53;100.00;101615.22;4954681;29;20039;-81
2023/04/30 01:01:47;;;;;;;6.35;2.75;;;;;;;4.47;100.00;101609.84;4955036;29;20043;-80
2023/04/30 01:04:13;;;;;;;4.05;2.60;;;;;;;4.44;100.00;101614.94;4939193;29;20061;-81
2023/04/30 01:06:40;;;;;;;10.73;4.65;;;;;;;4.42;100.00;101620.06;4938970;29;20369;-81
2023/04/30 01:09:07;;;;;;;7.20;2.88;;;;;;;4.41;100.00;101620.03;4954057;28;20328;-81
2023/04/30 01:12:07;;;;;;;9.35;3.10;;;;;;;4.39;100.00;101621.69;4955253;29;20035;-80
2023/04/30 01:15:04;;;;;;;13.45;6.45;;;;;;;4.40;100.00;101623.44;4955012;29;20114;-81
2023/04/30 01:17:38;;;;;;;5.35;2.95;;;;;;;4.34;100.00;101621.56;4954731;29;20221;-81
2023/04/30 01:20:07;;;;;;;5.82;3.55;;;;;;;4.30;100.00;101633.53;4937842;29;20037;-81
2023/04/30 01:22:55;;;;;;;9.35;2.92;;;;;;;4.25;100.00;101636.78;4953693;29;20051;-81
2023/04/30 01:25:40;;;;;;;3.97;2.50;;;;;;;4.23;100.00;101633.28;4954914;28;20038;-81
2023/04/30 01:28:16;;;;;;;7.68;2.05;;;;;;;4.23;100.00;101641.03;4956398;29;20043;-80
2023/04/30 01:30:44;;;;;;;4.53;2.60;;;;;;;4.19;100.00;101636.59;4954300;29;20098;-80
2023/04/30 01:33:12;;;;;;;6.03;2.67;;;;;;;4.13;100.00;101639.84;4954587;29;20162;-81
2023/04/30 01:36:19;;;;;;;7.57;3.28;;;;;;;4.11;100.00;101641.53;4954164;29;20043;-81
2023/04/30 01:39:19;;;;;;;4.38;2.75;;;;;;;4.07;100.00;101640.53;4954494;29;20493;-81
2023/04/30 01:42:10;;;;;;;9.48;2.28;;;;;;;4.03;100.00;101642.97;4955444;28;20071;-80
2023/04/30 01:45:06;;;;;;;10.48;2.55;;;;;;;3.99;100.00;101642.00;4954193;29;20106;-81
2023/04/30 01:48:08;;;;;;;9.75;3.17;;;;;;;4.00;100.00;101646.31;4953976;29;20505;-81
2023/04/30 01:51:26;;;;;;;4.57;2.63;;;;;;;4.00;100.00;101648.03;4954110;29;20042;-81
2023/04/30 01:53:58;;;;;;;10.50;3.28;;;;;;;3.88;100.00;101641.59;4949813;29;20055;-81
2023/04/30 01:56:32;;;;;;;5.20;2.88;;;;;;;3.87;100.00;101646.75;4954009;29;20086;-80
2023/04/30 01:58:59;;;;;;;5.43;2.67;;;;;;;3.83;100.00;101648.34;4937971;29;20047;-81
2023/04/30 02:01:30;;;;;;;6.55;3.08;;;;;;;3.80;100.00;101656.88;4953738;29;20047;-81
2023/04/30 02:03:57;;;;;;;4.05;2.67;;;;;;;3.78;100.00;101653.38;4953589;29;20046;-81
2023/04/30 02:06:27;;;;;;;8.05;2.53;;;;;;;3.81;100.00;101657.78;4954076;29;20074;-81
2023/04/30 02:08:54;;;;;;;8.85;3.28;;;;;;;3.79;100.00;101657.72;4954024;29;20050;-81
2023/04/30 02:11:23;;;;;;;5.95;3.13;;;;;;;3.77;100.00;101659.38;4939237;29;20497;-81
2023/04/30 02:13:50;;;;;;;5.82;3.13;;;;;;;3.77;100.00;101654.19;4954294;29;20110;-81
2023/04/30 02:16:16;;;;;;;9.10;3.13;;;;;;;3.75;100.00;101657.56;4953874;29;20525;-81
2023/04/30 02:18:44;;;;;;;7.78;3.20;;;;;;;3.71;100.00;101656.56;4938897;29;20366;-81
2023/04/30 02:21:10;;;;;;;8.20;2.80;;;;;;;3.71;100.00;101655.69;4953424;29;20102;-81
2023/04/30 02:23:37;;;;;;;9.45;2.63;;;;;;;3.69;100.00;101652.16;4953654;29;20059;-81
2023/04/30 02:26:03;;;;;;;3.75;2.72;;;;;;;3.67;100.00;101661.59;4937511;29;20047;-81
2023/04/30 02:28:30;;;;;;;8.23;3.20;;;;;;;3.63;100.00;101656.28;4937493;29;20134;-80
2023/04/30 02:30:57;;;;;;;9.65;3.10;;;;;;;3.63;100.00;101661.47;4954320;28;20039;-81
2023/04/30 02:33:23;;;;;;;5.20;2.72;;;;;;;3.63;100.00;101660.59;4957208;29;20050;-81
2023/04/30 02:35:50;;;;;;;8.05;3.75;;;;;;;3.62;100.00;101658.81;4956932;29;20035;-81
2023/04/30 02:38:16;;;;;;;8.80;3.13;;;;;;;3.57;100.00;101657.78;4958879;28;20050;-81
2023/04/30 02:40:42;;;;;;;5.68;4.00;;;;;;;3.55;100.00;101662.03;4941122;29;20051;-80
2023/04/30 02:43:09;;;;;;;14.48;4.40;;;;;;;3.54;100.00;101661.13;4957572;29;20039;-80
2023/04/30 02:45:36;;;;;;;8.18;4.28;;;;;;;3.52;100.00;101670.56;4957504;29;20047;-81
2023/04/30 02:48:02;;;;;;;6.63;3.78;;;;;;;3.51;100.00;101668.81;4957592;29;20083;-81
2023/04/30 02:50:29;;;;;;;11.82;5.22;;;;;;;3.50;100.00;101672.22;4957377;29;20046;-81
2023/04/30 02:52:56;;;;;;;6.43;3.75;;;;;;;3.48;100.00;101676.44;4957117;29;20043;-80
2023/04/30 02:55:22;;;;;;;9.20;5.18;;;;;;;3.46;100.00;101672.94;4956794;29;20509;-80
2023/04/30 02:57:49;;;;;;;6.85;3.42;;;;;;;3.42;100.00;101682.28;4957336;29;20043;-80
2023/04/30 03:00:16;;;;;;;6.72;3.75;;;;;;;3.39;100.00;101681.28;4957287;29;20094;-80
2023/04/30 03:02:44;;;;;;;4.90;2.92;;;;;;;3.34;100.00;101681.13;4941175;29;20051;-81
2023/04/30 03:05:11;;;;;;;7.88;3.65;;;;;;;3.31;100.00;101681.00;4957466;29;20066;-81
2023/04/30 03:07:38;;;;;;;12.85;3.95;;;;;;;3.27;100.00;101676.53;4958180;28;20122;-81
2023/04/30 03:10:05;;;;;;;6.40;3.47;;;;;;;3.26;100.00;101674.75;4958577;28;20197;-81
2023/04/30 03:12:34;;;;;;;5.93;3.78;;;;;;;3.21;100.00;101669.44;4940308;29;20046;-81
2023/04/30 03:15:01;;;;;;;5.50;3.30;;;;;;;3.17;100.00;101674.41;4940417;29;20375;-81
2023/04/30 03:17:27;;;;;;;3.95;3.10;;;;;;;3.18;100.00;101678.78;4956751;29;20450;-80
2023/04/30 03:19:53;;;;;;;4.60;3.03;;;;;;;3.17;100.00;101684.78;4956064;29;20405;-81
2023/04/30 03:22:22;;;;;;;4.85;3.28;;;;;;;3.16;100.00;101680.44;4956042;29;20486;-80
2023/04/30 03:24:49;;;;;;;8.23;3.95;;;;;;;3.11;100.00;101681.13;4957087;29;20423;-81
2023/04/30 03:27:16;;;;;;;6.22;3.20;;;;;;;3.09;100.00;101682.78;4956517;29;20066;-81
2023/04/30 03:29:43;;;;;;;8.55;3.13;;;;;;;3.06;100.00;101681.78;4957222;29;20143;-81
2023/04/30 03:32:09;;;;;;;5.57;3.40;;;;;;;3.06;100.00;101677.47;4957118;28;20043;-80
2023/04/30 03:34:35;;;;;;;8.88;3.72;;;;;;;3.06;100.00;101674.91;4956429;29;20059;-81
2023/04/30 03:37:02;;;;;;;4.75;3.35;;;;;;;3.04;100.00;101679.16;4940835;29;20051;-81
2023/04/30 03:39:29;;;;;;;9.82;3.60;;;;;;;2.98;100.00;101674.59;4940550;29;20474;-80
2023/04/30 03:41:55;;;;;;;7.03;3.22;;;;;;;2.95;100.00;101677.06;4955558;28;20126;-81
2023/04/30 03:44:22;;;;;;;10.32;3.72;;;;;;;2.93;100.00;101683.00;4955719;29;20039;-80
2023/04/30 03:46:48;;;;;;;8.10;3.53;;;;;;;2.92;100.00;101679.56;4940554;29;20370;-81
2023/04/30 03:49:15;;;;;;;6.25;3.97;;;;;;;2.89;100.00;101692.34;4955721;29;20043;-80
2023/04/30 03:51:41;;;;;;;7.68;4.68;;;;;;;2.88;100.00;101685.44;4955980;29;20470;-82
2023/04/30 03:54:10;;;;;;;6.05;4.70;;;;;;;2.89;100.00;101694.94;4955921;29;20054;-81
2023/04/30 03:56:37;;;;;;;11.68;4.82;;;;;;;2.88;100.00;101700.94;4956098;29;20039;-81
2023/04/30 03:59:05;;;;;;;9.45;5.75;;;;;;;2.88;100.00;101700.94;4956645;29;20118;-81
2023/04/30 04:01:32;;;;;;;8.15;4.28;;;;;;;2.88;100.00;101700.94;4940304;29;20143;-81
2023/04/30 04:03:58;;;;;;;9.63;3.70;;;;;;;2.89;100.00;101707.00;4956487;29;20070;-81
2023/04/30 04:06:25;;;;;;;5.35;3.92;;;;;;;2.88;100.00;101708.72;4956386;29;20378;-81
2023/04/30 04:08:52;;;;;;;8.15;4.47;;;;;;;2.86;100.00;101705.16;4940098;29;20074;-82
2023/04/30 04:11:18;;;;;;;9.25;4.40;;;;;;;2.86;100.00;101710.34;4955623;29;20035;-81
2023/04/30 04:13:45;;;;;;;6.90;5.55;;;;;;;2.86;100.00;101715.50;4956043;29;20046;-81
2023/04/30 04:16:11;;;;;;;8.02;4.28;;;;;;;2.85;100.00;101711.16;4955524;29;20391;-81
2023/04/30 04:18:38;;;;;;;9.70;5.50;;;;;;;2.89;100.00;101714.75;4955696;29;20091;-82
2023/04/30 04:21:05;;;;;;;5.40;4.10;;;;;;;2.89;100.00;101717.34;4956039;29;20466;-83
2023/04/30 04:23:32;;;;;;;4.88;4.13;;;;;;;2.97;100.00;101721.09;4956123;29;20098;-80
2023/04/30 04:25:59;;;;;;;7.60;3.90;;;;;;;3.06;100.00;101720.59;4955260;29;20137;-80
2023/04/30 04:28:25;;;;;;;5.45;4.50;;;;;;;3.09;100.00;101720.69;4955738;29;20047;-80
2023/04/30 04:30:52;;;;;;;5.13;3.85;;;;;;;3.15;100.00;101726.13;4955335;29;20043;-80
2023/04/30 04:33:18;;;;;;;8.93;3.60;;;;;;;3.21;100.00;101731.53;4955770;29;20042;-80
2023/04/30 04:35:44;;;;;;;6.75;3.65;;;;;;;3.24;100.00;101728.19;4938922;29;20043;-80
2023/04/30 04:38:11;;;;;;;9.55;4.85;;;;;;;3.26;100.00;101734.28;4955570;29;20086;-80
2023/04/30 04:40:37;;;;;;;7.05;3.72;;;;;;;3.31;100.00;101730.16;4939339;29;20043;-80
2023/04/30 04:43:04;;;;;;;11.27;4.38;;;;;;;3.36;100.00;101735.53;4954887;29;20488;-80
2023/04/30 04:45:32;;;;;;;8.35;4.43;;;;;;;3.43;100.00;101732.38;4955291;29;20466;-80
2023/04/30 04:47:58;;;;;;;11.93;4.28;;;;;;;3.50;100.00;101736.06;4954789;29;20067;-80
2023/04/30 04:50:25;;;;;;;8.10;4.47;;;;;;;3.50;100.00;101738.66;4939467;29;20087;-80
2023/04/30 04:52:51;;;;;;;8.93;4.65;;;;;;;3.51;100.00;101743.88;4954793;29;20054;-80
2023/04/30 04:55:18;;;;;;;9.90;5.00;;;;;;;3.56;100.00;101741.44;4954738;28;20098;-80
2023/04/30 04:57:44;;;;;;;10.30;4.68;;;;;;;3.60;100.00;101738.19;4954923;29;20039;-81
2023/04/30 05:00:12;;;;;;;4.68;4.03;;;;;;;3.64;100.00;101740.91;4955269;29;20035;-80
2023/04/30 05:02:38;;;;;;;9.15;4.50;;;;;;;3.71;100.00;101746.34;4954443;29;20486;-80
2023/04/30 05:05:05;;;;;;;4.88;4.32;;;;;;;3.73;100.00;101749.84;4940322;29;20364;-81
2023/04/30 05:07:33;;;;;;;6.07;4.70;;;;;;;3.77;100.00;101751.75;4954868;29;20042;-80
2023/04/30 05:10:00;;;;;;;9.90;4.82;;;;;;;3.81;100.00;101756.19;4955052;29;20035;-81
2023/04/30 05:12:26;;;;;;;6.85;4.50;;;;;;;3.88;100.00;101757.31;4954853;29;20126;-81
2023/04/30 05:14:53;;;;;;;8.98;4.00;;;;;;;3.94;100.00;101755.81;4954306;29;20035;-81
2023/04/30 05:17:19;;;;;;;7.28;3.92;;;;;;;3.97;100.00;101753.31;4938207;29;20081;-81
2023/04/30 05:19:47;;;;;;;7.63;3.47;;;;;;;4.00;100.00;101760.31;4954439;29;20067;-82
2023/04/30 05:22:14;;;;;;;6.43;3.72;;;;;;;4.03;100.00;101759.56;4954215;28;20059;-80
2023/04/30 05:24:41;;;;;;;10.60;3.92;;;;;;;4.08;100.00;101764.09;4938376;29;20387;-80
2023/04/30 05:27:08;;;;;;;5.72;3.13;;;;;;;4.11;100.00;101756.41;4954271;29;20114;-80
2023/04/30 05:29:34;;;;;;;6.18;3.80;;;;;;;4.12;100.00;101758.19;4956097;28;20043;-80
2023/04/30 05:32:01;;;;;;;7.88;4.03;;;;;;;4.13;100.00;101757.38;4954217;29;20052;-81
2023/04/30 05:34:28;;;;;;;8.20;3.85;;;;;;;4.20;100.00;101758.44;4954562;29;20043;-80
2023/04/30 05:36:54;;;;;;;8.88;3.47;;;;;;;4.26;100.00;101760.38;4954300;29;20035;-80
2023/04/30 05:39:21;;;;;;;7.07;3.55;;;;;;;4.30;100.00;101763.13;4954305;29;20047;-80
2023/04/30 05:41:47;;;;;;;7.93;3.28;;;;;;;4.37;100.00;101763.31;4953816;29;20043;-80
2023/04/30 05:44:14;;;;;;;9.32;3.15;;;;;;;4.45;100.00;101769.66;4954225;29;20058;-80
2023/04/30 05:46:40;;;;;;;4.80;3.10;;;;;;;4.50;100.00;101756.84;4938107;29;20039;-80
2023/04/30 05:49:07;;;;;;;10.25;3.20;;;;;;;4.59;100.00;101759.78;4954350;29;20039;-80
2023/04/30 05:51:33;;;;;;;6.68;2.80;;;;;;;4.68;100.00;101762.66;4954354;29;20070;-79
2023/04/30 05:54:00;;;;;;;10.32;2.90;;;;;;;4.75;100.00;101764.63;4954477;29;20035;-80
2023/04/30 05:56:26;;;;;;;7.82;4.30;;;;;;;4.81;100.00;101766.56;4953993;29;20043;-80
2023/04/30 05:58:53;;;;;;;11.05;3.33;;;;;;;4.85;100.00;101763.22;4953938;29;20047;-80
2023/04/30 06:01:21;;;;;;;9.63;2.97;;;;;;;4.93;100.00;101769.53;4954068;28;20467;-80
2023/04/30 06:03:47;;;;;;;11.15;3.25;;;;;;;5.03;100.00;101767.22;4954268;29;20102;-80
2023/04/30 06:06:14;;;;;;;7.22;2.70;;;;;;;5.09;99.33;101775.22;4956014;28;20051;-81
2023/04/30 06:08:43;;;;;;;7.63;2.60;;;;;;;5.19;98.44;101772.06;4958169;29;20138;-80
2023/04/30 06:11:11;;;;;;;7.20;2.67;;;;;;;5.26;96.90;101773.16;4958179;29;20047;-81
2023/04/30 06:13:38;;;;;;;5.55;2.22;;;;;;;5.31;96.01;101771.56;4957951;29;20090;-81
2023/04/30 06:16:07;;;;;;;3.92;2.03;;;;;;;5.36;92.83;101771.69;4941873;29;20047;-81
2023/04/30 06:18:34;;;;;;;11.57;2.33;;;;;;;5.37;92.05;101776.06;4958154;29;20114;-80
2023/04/30 06:21:00;;;;;;;5.60;2.05;;;;;;;5.45;91.57;101782.38;4986874;23;20115;-81
2023/04/30 06:23:27;;;;;;;9.63;2.00;;;;;;;5.49;89.94;101784.25;4961201;28;20070;-81
2023/04/30 06:25:53;;;;;;;8.30;2.20;;;;;;;5.55;89.93;101780.94;4977118;28;20134;-81
2023/04/30 06:28:20;;;;;;;9.45;2.25;;;;;;;5.57;90.34;101785.34;4961149;28;20045;-82
2023/04/30 06:30:47;;;;;;;6.65;2.42;;;;;;;5.61;90.46;101789.78;4978412;28;20035;-80
2023/04/30 06:33:13;;;;;;;6.78;2.38;;;;;;;5.74;88.52;101792.75;4960845;28;20042;-79
2023/04/30 06:35:40;;;;;;;7.97;2.40;;;;;;;5.83;87.35;101786.94;4960849;28;20053;-82
2023/04/30 06:38:07;;;;;;;5.13;1.88;;;;;;;5.89;86.57;101788.00;4961874;28;20043;-81
2023/04/30 06:40:34;;;;;;;8.43;2.67;;;;;;;6.01;86.82;101787.50;4947844;28;20046;-81
2023/04/30 06:43:01;;;;;;;7.50;2.10;;;;;;;6.11;87.25;101786.94;4962415;28;20038;-81
2023/04/30 06:45:27;;;;;;;4.22;2.00;;;;;;;6.21;85.90;101780.25;4962398;28;20093;-82
2023/04/30 06:47:54;;;;;;;7.80;2.05;;;;;;;6.34;84.21;101780.59;4965152;28;20046;-81
2023/04/30 06:50:21;;;;;;;11.45;2.88;;;;;;;6.43;82.62;101783.44;4961320;28;20049;-81
2023/04/30 06:52:47;;;;;;;5.05;1.83;;;;;;;6.56;83.36;101779.44;4961690;28;20047;-81
2023/04/30 06:55:14;;;;;;;10.68;1.95;;;;;;;6.82;81.93;101785.28;4961424;28;20121;-81
2023/04/30 06:57:41;;;;;;;9.80;2.13;;;;;;;7.24;78.90;101779.31;4961099;28;20035;-81
2023/04/30 07:00:08;;;;;;;5.63;2.28;;;;;;;7.67;77.73;101778.53;4960977;28;20101;-81
2023/04/30 07:02:35;;;;;;;6.35;1.65;;;;;;;8.15;73.18;101790.78;4961507;28;20049;-81
2023/04/30 07:05:01;;;;;;;6.60;2.20;;;;;;;8.46;71.72;101782.69;4960585;28;20039;-81
2023/04/30 07:07:28;;;;;;;10.75;2.30;;;;;;;8.72;71.02;101790.97;4961255;28;20125;-80
2023/04/30 07:09:54;;;;;;;12.48;2.47;;;;;;;9.23;68.45;101782.22;4961288;28;20035;-81
2023/04/30 07:12:21;;;;;;;9.70;2.45;;;;;;;9.79;69.41;101790.81;4960428;28;20085;-81
2023/04/30 07:14:47;;;;;;;4.68;2.15;;;;;;;10.34;65.59;101784.44;4959785;28;20478;-81
2023/04/30 07:17:14;;;;;;;9.43;2.17;;;;;;;10.83;63.64;101784.06;4975746;28;20046;-82
2023/04/30 07:19:41;;;;;;;8.00;2.13;;;;;;;10.92;62.80;101789.38;4943160;28;20449;-82
2023/04/30 07:22:07;;;;;;;6.07;2.20;;;;;;;10.99;61.89;101785.03;4959318;28;20042;-81
2023/04/30 07:24:34;;;;;;;5.35;2.10;;;;;;;11.34;61.50;101785.31;4959971;28;20426;-81
2023/04/30 07:27:02;;;;;;;8.38;2.10;;;;;;;11.48;60.16;101788.00;4959758;28;20482;-81
2023/04/30 07:29:29;;;;;;;4.00;1.70;;;;;;;11.65;59.23;101793.31;4959942;28;20039;-80
2023/04/30 07:31:56;;;;;;;4.53;1.77;;;;;;;11.63;57.07;101788.94;4959309;28;20043;-80
2023/04/30 07:34:23;;;;;;;3.92;1.73;;;;;;;12.10;57.36;101787.41;4959840;28;20484;-82
2023/04/30 07:36:50;;;;;;;5.72;2.28;;;;;;;12.19;54.99;101783.06;4959915;28;20654;-82
2023/04/30 07:39:16;;;;;;;5.15;1.80;;;;;;;12.63;52.68;101784.00;4943185;28;20129;-82
2023/04/30 07:41:44;;;;;;;6.53;1.65;;;;;;;13.22;53.88;101786.63;4959557;28;20047;-82
2023/04/30 07:44:11;;;;;;;7.72;1.90;;;;;;;13.69;50.36;101788.25;4977444;28;20042;-81
2023/04/30 07:46:37;;;;;;;6.63;1.98;;;;;;;13.60;49.69;101783.03;4959584;28;20042;-82
2023/04/30 07:49:04;;;;;;;9.35;2.25;;;;;;;14.12;48.88;101787.19;4943328;28;20403;-83
2023/04/30 07:51:31;;;;;;;8.63;3.03;;;;;;;14.96;45.81;101784.00;4944212;28;20426;-82
2023/04/30 07:54:00;;;;;;;6.28;1.88;;;;;;;15.55;44.48;101778.97;4959187;28;20097;-81
2023/04/30 07:56:26;;;;;;;8.50;1.85;;;;;;;14.82;44.50;101778.81;4959258;28;20073;-81
2023/04/30 07:58:53;;;;;;;7.68;2.05;;;;;;;14.81;44.87;101783.22;4959083;28;20130;-81
2023/04/30 08:01:19;;;;;;;5.03;1.48;;;;;;;14.17;46.25;101780.16;4959011;28;20043;-82
2023/04/30 08:03:46;;;;;;;4.38;2.00;;;;;;;13.63;46.74;101790.91;4958778;28;20039;-82
2023/04/30 08:06:15;;;;;;;3.85;1.92;;;;;;;12.78;48.37;101792.78;4958820;28;20497;-82
2023/04/30 08:08:42;;;;;;;7.72;2.30;;;;;;;12.19;49.34;101787.44;4959474;28;20038;-82
2023/04/30 08:11:08;;;;;;;7.57;1.33;;;;;;;12.56;48.74;101795.38;4959270;28;20085;-81
2023/04/30 08:13:35;;;;;;;2.95;1.35;;;;;;;13.66;46.07;101796.19;4959130;28;20050;-80
2023/04/30 08:16:02;;;;;;;8.38;2.60;;;;;;;14.05;45.19;101789.00;4958808;28;20035;-81
2023/04/30 08:18:30;;;;;;;3.70;1.80;;;;;;;14.77;44.79;101786.78;4959411;28;20039;-80
2023/04/30 08:20:56;;;;;;;8.10;1.60;;;;;;;15.28;42.59;101788.94;4943128;28;20157;-82
2023/04/30 08:23:24;;;;;;;7.05;2.10;;;;;;;16.14;40.21;101794.09;4942811;28;20109;-82
2023/04/30 08:25:51;;;;;;;3.80;1.35;;;;;;;16.03;40.41;101797.78;4942972;28;20509;-82
2023/04/30 08:28:18;;;;;;;5.45;1.70;;;;;;;16.03;39.49;101794.25;4963464;28;20043;-82
2023/04/30 08:30:46;;;;;;;3.35;1.98;;;;;;;16.14;40.04;101787.06;4950401;28;20046;-81
2023/04/30 08:33:14;;;;;;;4.30;1.70;;;;;;;16.29;38.92;101785.94;4946252;28;20038;-82
2023/04/30 08:35:40;;;;;;;4.45;2.00;;;;;;;16.87;37.35;101785.94;4959655;28;20078;-82
2023/04/30 08:38:07;;;;;;;5.00;1.90;;;;;;;16.84;38.12;101793.91;4960185;28;20039;-82
2023/04/30 08:40:36;;;;;;;6.00;1.42;;;;;;;17.79;37.68;101785.97;4959883;28;20042;-82
2023/04/30 08:43:08;;;;;;;9.98;1.92;;;;;;;18.74;34.37;101775.91;4959340;28;20042;-81
2023/04/30 08:45:36;;;;;;;5.75;2.33;;;;;;;19.49;33.13;101767.75;4960197;28;20521;-82
2023/04/30 08:48:15;;;;;;;3.92;1.60;;;;;;;20.06;32.72;101776.69;4949476;28;20071;-81
2023/04/30 08:50:45;;;;;;;6.45;2.50;;;;;;;20.45;33.39;101767.50;4978095;28;20047;-80
2023/04/30 08:56:52;;;;;;;2.80;2.40;;;;;;;19.04;33.28;101763.66;4977670;28;20039;-81
2023/04/30 08:59:19;;;;;;;3.83;2.17;;;;;;;18.68;34.69;101766.31;4959469;28;20081;-81
2023/04/30 09:01:46;;;;;;;6.03;1.60;;;;;;;19.17;33.41;101766.84;4958765;28;20097;-81
2023/04/30 09:04:13;;;;;;;5.65;2.05;;;;;;;19.24;33.15;101772.84;4958785;28;20056;-80
2023/04/30 09:06:43;;;;;;;6.35;1.90;;;;;;;19.88;32.38;101761.31;4959296;28;20058;-82
2023/04/30 09:09:13;;;;;;;4.57;1.95;;;;;;;20.57;31.10;101763.59;4959297;28;20053;-82
2023/04/30 09:11:41;;;;;;;7.15;2.00;;;;;;;20.54;31.14;101767.22;4959943;28;20353;-82
2023/04/30 09:14:08;;;;;;;3.65;1.48;;;;;;;21.67;30.74;101754.44;4975463;28;20039;-81
2023/04/30 09:16:47;;;;;;;3.92;1.80;;;;;;;22.41;28.52;101752.44;4959053;28;20125;-82
2023/04/30 09:19:24;;;;;;;4.93;2.10;;;;;;;22.41;27.50;101760.44;4958762;28;20362;-81
2023/04/30 09:21:51;;;;;;;5.15;1.73;;;;;;;22.43;28.25;101763.03;4958191;28;20038;-81
2023/04/30 09:24:20;;;;;;;4.43;2.03;;;;;;;23.29;27.22;101761.16;4958543;28;20039;-81
2023/04/30 09:26:47;;;;;;;4.18;1.92;;;;;;;23.87;27.04;101759.41;4959178;28;20045;-81
2023/04/30 09:29:14;;;;;;;6.45;1.80;;;;;;;24.09;26.82;101753.94;4958618;28;20034;-81
2023/04/30 09:31:47;;;;;;;4.88;2.50;;;;;;;24.15;26.14;101761.66;4958548;28;20046;-82
2023/04/30 09:34:15;;;;;;;3.15;2.05;;;;;;;24.02;26.68;101749.84;4959093;28;20037;-81
2023/04/30 09:36:55;;;;;;;5.13;1.58;;;;;;;23.96;25.35;101745.63;4958836;28;20470;-81
2023/04/30 09:39:22;;;;;;;11.13;2.42;;;;;;;23.13;25.50;101751.13;4958519;28;20046;-82
2023/04/30 09:41:51;;;;;;;4.03;1.73;;;;;;;22.59;25.82;101756.13;4957853;28;20058;-82
2023/04/30 09:44:32;;;;;;;4.63;1.83;;;;;;;21.51;26.73;101751.47;4958872;28;20038;-82
2023/04/30 09:46:59;;;;;;;4.38;2.20;;;;;;;21.11;27.93;101748.47;4958667;28;20042;-82
2023/04/30 09:49:26;;;;;;;3.88;1.65;;;;;;;21.53;26.16;101747.81;4942138;28;20450;-81
2023/04/30 09:52:01;;;;;;;6.07;1.85;;;;;;;22.71;25.90;101735.19;4943076;28;20078;-82
2023/04/30 09:54:30;;;;;;;3.35;2.00;;;;;;;22.45;25.33;101734.50;4958427;28;20045;-81
2023/04/30 09:57:02;;;;;;;5.35;1.63;;;;;;;23.38;25.30;101736.69;4975960;28;20043;-82
2023/04/30 09:59:36;;;;;;;3.10;1.80;;;;;;;23.70;24.83;101733.47;4957473;28;20035;-83
2023/04/30 10:02:09;;;;;;;8.15;1.75;;;;;;;24.27;24.65;101738.78;4958281;28;20121;-82
2023/04/30 10:04:44;;;;;;;8.20;1.50;;;;;;;24.69;22.89;101736.72;4958218;28;20039;-81
2023/04/30 10:07:20;;;;;;;4.40;1.15;;;;;;;22.85;22.66;101732.78;4942386;28;20370;-82
2023/04/30 10:09:57;;;;;;;3.30;1.52;;;;;;;24.04;22.55;101731.88;4957737;28;20050;-82
2023/04/30 10:12:53;;;;;;;1.95;1.45;;;;;;;25.42;21.55;101717.72;4957822;28;20125;-82
2023/04/30 10:15:21;;;;;;;4.00;1.83;;;;;;;26.17;20.83;101714.47;4942304;28;20070;-82
2023/04/30 10:17:59;;;;;;;4.45;1.63;;;;;;;26.36;20.92;101716.94;4941733;28;20051;-81
2023/04/30 10:20:27;;;;;;;3.78;1.75;;;;;;;26.97;21.37;101723.13;4957171;28;20105;-83
2023/04/30 10:22:55;;;;;;;3.83;1.80;;;;;;;27.39;21.15;101724.16;4958203;28;20051;-84
2023/04/30 10:25:22;;;;;;;2.70;1.27;;;;;;;27.17;20.04;101724.59;4941848;28;20070;-82
2023/04/30 10:27:49;;;;;;;4.97;1.85;;;;;;;27.71;20.49;101713.13;4941555;28;20125;-83
2023/04/30 10:30:16;;;;;;;2.15;1.30;;;;;;;27.81;20.26;101713.41;4957372;28;20456;-83
2023/04/30 10:33:06;;;;;;;5.50;1.90;;;;;;;28.19;19.48;101719.97;4941665;28;20053;-83
2023/04/30 10:36:00;;;;;;;4.30;2.08;;;;;;;28.29;19.35;101712.13;4960772;28;20070;-84
2023/04/30 10:38:37;;;;;;;3.15;1.60;;;;;;;27.44;20.09;101709.56;4957501;28;20035;-83
2023/04/30 10:41:08;;;;;;;6.35;1.98;;;;;;;28.01;19.70;101708.56;4957810;28;20470;-84
2023/04/30 10:43:39;;;;;;;2.28;1.42;;;;;;;27.66;19.81;101703.66;4942125;28;20106;-84
2023/04/30 10:46:08;;;;;;;4.60;1.98;;;;;;;27.84;20.32;101696.22;4957711;28;20042;-84
2023/04/30 10:48:38;;;;;;;2.80;1.73;;;;;;;27.82;19.52;101692.75;4959244;28;20106;-83
2023/04/30 10:51:10;;;;;;;5.45;2.40;;;;;;;27.83;20.04;101698.03;4958137;28;20066;-83
2023/04/30 10:53:39;;;;;;;3.88;1.88;;;;;;;28.57;19.33;101684.16;4963861;28;20035;-83
2023/04/30 10:56:07;;;;;;;3.35;1.75;;;;;;;28.75;19.03;101683.88;4968465;28;20072;-83
2023/04/30 10:58:42;;;;;;;4.18;1.27;;;;;;;27.82;18.47;101687.38;4961009;28;20042;-83
2023/04/30 11:01:16;;;;;;;1.42;1.17;;;;;;;27.80;18.78;101682.09;4944888;28;20137;-83
2023/04/30 11:04:04;;;;;;;3.55;1.73;;;;;;;27.30;19.27;101678.13;4961437;28;20050;-83
2023/04/30 11:06:55;;;;;;;3.47;1.45;;;;;;;27.96;18.21;101683.78;4944037;28;20544;-82
2023/04/30 11:09:42;;;;;;;2.85;1.25;;;;;;;28.78;17.77;101665.66;4960674;28;20054;-83
2023/04/30 11:12:16;;;;;;;2.40;1.48;;;;;;;27.49;18.67;101670.63;4960424;28;20126;-82
2023/04/30 11:14:46;;;;;;;1.80;1.50;;;;;;;27.61;19.49;101670.81;4960353;28;20039;-82
2023/04/30 11:17:22;;;;;;;2.58;1.42;;;;;;;28.13;18.55;101666.53;4960458;28;20130;-82
2023/04/30 11:19:51;;;;;;;3.72;1.40;;;;;;;26.60;19.69;101670.78;4960130;28;20046;-82
2023/04/30 11:22:24;;;;;;;3.70;1.73;;;;;;;25.73;20.40;101663.25;4959921;28;20049;-82
2023/04/30 11:25:00;;;;;;;5.60;2.00;;;;;;;26.95;19.33;101660.59;4960278;28;20039;-82
2023/04/30 11:27:29;;;;;;;2.15;1.35;;;;;;;27.93;19.44;101662.47;4975925;28;20489;-82
2023/04/30 11:29:59;;;;;;;3.92;1.77;;;;;;;29.26;17.56;101659.59;4960489;28;20043;-82
2023/04/30 11:32:34;;;;;;;1.70;1.52;;;;;;;29.97;17.58;101653.53;4943966;28;20168;-82
2023/04/30 11:35:05;;;;;;;4.60;1.88;;;;;;;30.23;16.93;101648.00;4977545;28;20047;-82
2023/04/30 11:37:38;;;;;;;2.83;1.33;;;;;;;30.35;17.14;101650.63;4977071;28;20393;-82